Detall de PIREP

Printer-friendly versionPDF version

[2011/12/09 22:46:00]
Flight IATA:CT2206
Pilot Number:026
Company ICAO:CAT
Aircraft Type:DC85/A
PAX:132
Departing Airport: LFMP
Destination Airport: LFSB
Alternate Airport:LSGG
Online: VATSIM
Route:SIJAN/N0390F180- A27 MEN/N0410F300 ETREK UN871 LTP UN871 SOPLO UN871 MOLUS UN871 KONOL Z59 LUMEL
Flight Level:F300
No Slew and time accel
No pause
Crash detect
Detect pilot in Cockpit between each 30 and 45 minutes
22:46 Zero fuel Weight: 179024 Lbs, Fuel Weight: 27001 Lbs
22:46 VATSIM:LFMP 092230Z AUTO 26004KT 9999 NSC 08/07 Q1020
22:46 VATSIM:LFSB 092230Z 25007KT 210V280 9999 -RA FEW046 BKN060 10/08 Q1014 NOSIG
22:47 VOICE CATALONIAN / 5 ANYS VATFRANCE
22:53 Parking Brakes off
22:59 Take-off
22:59 Take off Weight: 205229 Lbs
22:59 Wind: 262º @ 004 Knots Heading: 327º
22:59 POS N42º 45´ 07´´ E002º 51´ 46´´
22:59 Gear Up: 162 Knots
22:59 Flaps:2 at 162 Knots
23:00 Flaps:1 at 184 Knots
23:01 Flaps:0 at 192 Knots
23:14 Wind:208º@010 Knots Heading: 006º Ground Speed: 413 Knots Altitude 25124 ft
23:20 TOC
23:20 Fuel Weight: 19915 Lb
23:29 Wind:104º@022 Knots Heading: 063º Ground Speed: 473 Knots Altitude 30131 ft
23:39 TOD
23:39 Fuel Weight: 14702 Lb
23:44 Wind:212º@031 Knots Heading: 053º Ground Speed: 445 Knots Altitude 20708 ft
23:59 Wind:253º@010 Knots Heading: 068º Ground Speed: 214 Knots Altitude 5013 ft
00:06 Flaps:1 at 181 Knots
00:08 Gear Down: 146 Knots
00:09 Flaps:2 at 137 Knots
00:10 Flaps:3 at 143 Knots
00:10 Flaps:4 at 143 Knots
00:11 Flaps:5 at 131 Knots
00:11 TouchDown:Rate -80 ft/min Speed: 111 Knots
00:11 VATSIM:LFSB 100000Z AUTO VRB03KT 9999 -RA SCT020/// BKN028/// OVC033/// //////TCU 09/08 Q1014
00:11 Land
00:11 Wind:243º@006 Knots
00:11 Heading: 155º
00:11 Flight Duration: 01:12
00:11 Landing Weight:190277 Lbs
00:11 POS N47º 36´ 30´´ E007º 30´ 59´´
00:14 Parking brakes on
00:14 Block to Block Duration: 01:21
00:14 Final Fuel: 11033 Lbls
00:14 Spent Fuel: 15967 Lbls
00:14 Flight Length: 438 NM
00:14 TOD Land Length: 154 NM

Exportar CSV

Powered by Drupal - Modified by Danger4k